createdAt,value
2018-09-19T00:00:16.376Z,0
2018-09-19T00:00:56.736Z,0
2018-09-19T00:01:37.156Z,0
2018-09-19T00:02:17.594Z,0
2018-09-19T00:02:58.000Z,0
2018-09-19T00:03:38.418Z,0
2018-09-19T00:04:18.821Z,0
2018-09-19T00:04:59.333Z,0
2018-09-19T00:05:39.654Z,0
2018-09-19T00:06:20.066Z,0
2018-09-19T00:07:00.608Z,0
2018-09-19T00:07:40.974Z,0
2018-09-19T00:08:21.392Z,0
2018-09-19T00:09:01.892Z,0
2018-09-19T00:09:42.281Z,0
2018-09-19T00:10:22.996Z,0
2018-09-19T00:11:03.248Z,0
2018-09-19T00:11:43.640Z,0
2018-09-19T00:12:23.946Z,0
2018-09-19T00:13:04.499Z,0
2018-09-19T00:13:44.874Z,0
2018-09-19T00:14:25.244Z,0
2018-09-19T00:15:05.724Z,0
2018-09-19T00:15:46.217Z,0
2018-09-19T00:16:26.490Z,0
2018-09-19T00:17:06.957Z,0
2018-09-19T00:17:47.371Z,0
2018-09-19T00:18:27.989Z,0
2018-09-19T00:19:08.258Z,0
2018-09-19T00:19:48.755Z,0
2018-09-19T00:20:29.059Z,0
2018-09-19T00:21:09.473Z,0
2018-09-19T00:21:49.950Z,0
2018-09-19T00:22:30.281Z,0
2018-09-19T00:23:10.832Z,0
2018-09-19T00:23:51.211Z,0
2018-09-19T00:24:31.650Z,0
2018-09-19T00:25:12.115Z,0
2018-09-19T00:25:52.486Z,0
2018-09-19T00:26:32.844Z,0
2018-09-19T00:27:13.328Z,0
2018-09-19T00:27:53.738Z,0
2018-09-19T00:28:34.209Z,0
2018-09-19T00:29:14.576Z,0
2018-09-19T00:29:55.053Z,0
2018-09-19T00:30:35.536Z,0
2018-09-19T00:31:15.959Z,0
2018-09-19T00:31:56.350Z,0
2018-09-19T00:32:36.724Z,0
2018-09-19T00:33:17.205Z,0
2018-09-19T00:33:57.596Z,0
2018-09-19T00:34:38.086Z,0
2018-09-19T00:35:18.479Z,0
2018-09-19T00:35:58.942Z,0
2018-09-19T00:36:39.352Z,0
2018-09-19T00:37:19.836Z,0
2018-09-19T00:38:00.229Z,0
2018-09-19T00:38:40.657Z,0
2018-09-19T00:39:21.191Z,0
2018-09-19T00:40:01.570Z,0
2018-09-19T00:40:41.954Z,0
2018-09-19T00:41:22.496Z,0
2018-09-19T00:42:02.872Z,0
2018-09-19T00:42:43.186Z,0
2018-09-19T00:43:23.679Z,0
2018-09-19T00:44:04.092Z,0
2018-09-19T00:44:44.456Z,0
2018-09-19T00:45:24.953Z,0
2018-09-19T00:46:05.298Z,0
2018-09-19T00:46:45.809Z,0
2018-09-19T00:47:26.402Z,0
2018-09-19T00:48:06.737Z,0
2018-09-19T00:48:47.135Z,0
2018-09-19T00:49:27.671Z,0
2018-09-19T00:50:08.115Z,0
2018-09-19T00:50:48.657Z,0
2018-09-19T00:51:28.962Z,0
2018-09-19T00:52:09.382Z,0
2018-09-19T00:52:49.832Z,0
2018-09-19T00:53:30.120Z,0
2018-09-19T00:54:10.632Z,0
2018-09-19T00:54:51.066Z,0
2018-09-19T00:55:31.484Z,0
2018-09-19T00:56:11.807Z,0
2018-09-19T00:56:52.290Z,0
2018-09-19T00:57:32.676Z,0
2018-09-19T00:58:13.200Z,0
2018-09-19T00:58:53.502Z,0
2018-09-19T00:59:33.860Z,0
2018-09-19T01:00:14.393Z,0
2018-09-19T01:00:54.811Z,0
2018-09-19T01:01:35.228Z,0
2018-09-19T01:02:15.631Z,0
2018-09-19T01:02:55.918Z,0
2018-09-19T01:03:36.606Z,0
2018-09-19T01:04:17.321Z,0
2018-09-19T01:04:57.636Z,0
2018-09-19T01:05:38.206Z,0
2018-09-19T01:06:18.654Z,0
2018-09-19T01:06:59.062Z,0
2018-09-19T01:07:39.494Z,0
2018-09-19T01:08:19.912Z,0
2018-09-19T01:09:00.281Z,0
2018-09-19T01:09:41.064Z,0
2018-09-19T01:10:21.198Z,0
2018-09-19T01:11:01.648Z,0
2018-09-19T01:11:42.083Z,0
2018-09-19T01:12:22.476Z,0
2018-09-19T01:13:02.921Z,0
2018-09-19T01:13:43.354Z,0
2018-09-19T01:14:23.733Z,0
2018-09-19T01:15:04.211Z,0
2018-09-19T01:15:44.549Z,0
2018-09-19T01:16:25.025Z,0
2018-09-19T01:17:05.338Z,0
2018-09-19T01:17:45.790Z,0
2018-09-19T01:18:26.232Z,0
2018-09-19T01:19:06.736Z,0
2018-09-19T01:19:47.161Z,0
2018-09-19T01:20:27.522Z,0
2018-09-19T01:21:07.959Z,0
2018-09-19T01:21:48.409Z,0
2018-09-19T01:22:28.916Z,0
2018-09-19T01:23:09.205Z,0
2018-09-19T01:23:49.778Z,0
2018-09-19T01:24:30.040Z,0
2018-09-19T01:25:10.536Z,0
2018-09-19T01:25:50.909Z,0
2018-09-19T01:26:31.326Z,0
2018-09-19T01:27:11.735Z,0
2018-09-19T01:29:41.649Z,0
2018-09-19T01:30:22.009Z,0
2018-09-19T01:31:02.393Z,0
2018-09-19T01:31:42.778Z,0
2018-09-19T01:32:23.241Z,0
2018-09-19T01:33:03.711Z,0
2018-09-19T01:33:44.071Z,0
2018-09-19T01:34:24.671Z,0
2018-09-19T01:35:04.965Z,0
2018-09-19T01:35:45.456Z,0
2018-09-19T01:36:25.861Z,0
2018-09-19T01:37:06.453Z,0
2018-09-19T01:37:46.935Z,0
2018-09-19T01:38:27.268Z,0
2018-09-19T01:39:07.649Z,0
2018-09-19T01:39:48.079Z,0
2018-09-19T01:40:28.456Z,0
2018-09-19T01:41:08.891Z,0
2018-09-19T01:41:49.255Z,0
2018-09-19T01:42:29.731Z,0
2018-09-19T01:43:10.130Z,0
2018-09-19T01:43:50.593Z,0
2018-09-19T01:44:31.039Z,0
2018-09-19T01:45:11.514Z,0
2018-09-19T01:45:51.959Z,0
2018-09-19T01:46:32.287Z,0
2018-09-19T01:47:12.710Z,0
2018-09-19T01:47:53.084Z,0
2018-09-19T01:48:33.516Z,0
2018-09-19T01:49:13.942Z,0
2018-09-19T01:49:54.391Z,0
2018-09-19T01:50:34.838Z,0
2018-09-19T01:51:15.204Z,0
2018-09-19T01:51:55.675Z,0
2018-09-19T01:52:36.097Z,0
2018-09-19T01:53:16.464Z,0
2018-09-19T01:53:56.966Z,0
2018-09-19T01:54:37.353Z,0
2018-09-19T01:55:17.792Z,0
2018-09-19T01:55:58.239Z,0
2018-09-19T01:56:38.593Z,0
2018-09-19T01:57:19.196Z,0
2018-09-19T01:57:59.631Z,0
2018-09-19T01:58:40.020Z,0
2018-09-19T01:59:20.420Z,0
2018-09-19T02:00:00.874Z,0
2018-09-19T02:00:41.319Z,0
2018-09-19T02:01:21.634Z,0
2018-09-19T02:02:02.019Z,0
2018-09-19T02:02:42.582Z,0
2018-09-19T02:03:22.920Z,0
2018-09-19T02:04:03.356Z,0
2018-09-19T02:04:43.751Z,0
2018-09-19T02:05:24.111Z,0
2018-09-19T02:06:04.572Z,0
2018-09-19T02:06:44.990Z,0
2018-09-19T02:07:25.384Z,0
2018-09-19T02:08:05.752Z,0
2018-09-19T02:08:46.230Z,0
2018-09-19T02:09:26.703Z,0
2018-09-19T02:10:07.106Z,0
2018-09-19T02:10:47.535Z,0
2018-09-19T02:11:27.952Z,0
2018-09-19T02:12:22.925Z,0
2018-09-19T02:13:03.349Z,0
2018-09-19T02:13:43.726Z,0
2018-09-19T02:14:24.102Z,0
2018-09-19T02:15:04.515Z,0
2018-09-19T02:15:45.013Z,0
2018-09-19T02:16:25.274Z,0
2018-09-19T02:17:05.829Z,0
2018-09-19T02:17:46.241Z,0
2018-09-19T02:18:26.640Z,0
2018-09-19T02:19:07.298Z,0
2018-09-19T02:19:47.745Z,0
2018-09-19T02:20:28.471Z,0
2018-09-19T02:21:08.944Z,0
2018-09-19T02:21:49.331Z,0
2018-09-19T02:22:29.678Z,0
2018-09-19T02:23:10.190Z,0
2018-09-19T02:23:50.675Z,0
2018-09-19T02:24:31.061Z,0
2018-09-19T02:25:11.468Z,0
2018-09-19T02:25:51.745Z,0
2018-09-19T02:26:32.272Z,0
2018-09-19T02:27:12.729Z,0
2018-09-19T02:27:53.172Z,0
2018-09-19T02:28:33.652Z,0
2018-09-19T02:29:14.019Z,0
2018-09-19T02:29:54.334Z,0
2018-09-19T02:30:34.733Z,0
2018-09-19T02:31:15.164Z,0
2018-09-19T02:31:55.516Z,0
2018-09-19T02:32:35.997Z,0
2018-09-19T02:33:16.351Z,0
2018-09-19T02:33:56.747Z,0
2018-09-19T02:34:37.233Z,0
2018-09-19T02:35:17.594Z,0
2018-09-19T02:35:58.010Z,0
2018-09-19T02:36:38.365Z,0
2018-09-19T02:37:18.806Z,0
2018-09-19T02:37:59.167Z,0
2018-09-19T02:38:39.612Z,0
2018-09-19T02:39:19.993Z,0
2018-09-19T02:40:00.374Z,0
2018-09-19T02:40:40.903Z,0
2018-09-19T02:41:21.300Z,0
2018-09-19T02:42:01.706Z,0
2018-09-19T02:42:42.184Z,0
2018-09-19T02:43:22.451Z,0
2018-09-19T02:44:02.888Z,0
2018-09-19T02:44:43.523Z,0
2018-09-19T02:45:23.812Z,0
2018-09-19T02:46:04.676Z,0
2018-09-19T02:46:45.103Z,0
2018-09-19T02:47:25.536Z,0
2018-09-19T02:48:05.938Z,0
2018-09-19T02:48:46.468Z,0
2018-09-19T02:49:26.745Z,0
2018-09-19T02:50:07.160Z,0
2018-09-19T02:50:47.545Z,0
2018-09-19T02:51:28.050Z,0
2018-09-19T02:52:08.370Z,0
2018-09-19T02:52:48.770Z,0
2018-09-19T02:53:29.258Z,0
2018-09-19T02:54:09.743Z,0
2018-09-19T02:54:50.167Z,0
2018-09-19T02:55:30.425Z,0
2018-09-19T02:56:10.933Z,0
2018-09-19T02:56:51.303Z,0
2018-09-19T02:57:31.686Z,0
2018-09-19T02:58:12.139Z,0
2018-09-19T02:58:52.595Z,0
2018-09-19T02:59:33.033Z,0
2018-09-19T03:00:13.509Z,0
2018-09-19T03:00:54.031Z,0
2018-09-19T03:01:34.434Z,0
2018-09-19T03:02:14.914Z,0
2018-09-19T03:02:55.391Z,0
2018-09-19T03:03:35.831Z,0
2018-09-19T03:04:16.166Z,0
2018-09-19T03:04:56.819Z,0
2018-09-19T03:05:37.108Z,0
2018-09-19T03:06:18.665Z,0
2018-09-19T03:06:59.214Z,0
2018-09-19T03:07:39.670Z,0
2018-09-19T03:08:20.125Z,0
2018-09-19T03:09:00.721Z,0
2018-09-19T03:09:41.165Z,0
2018-09-19T03:10:21.638Z,0
2018-09-19T03:11:01.999Z,0
2018-09-19T03:11:42.463Z,0
2018-09-19T03:12:22.830Z,0
2018-09-19T03:13:03.277Z,0
2018-09-19T03:13:43.711Z,0
2018-09-19T03:14:24.219Z,0
2018-09-19T03:15:04.486Z,0
2018-09-19T03:15:44.921Z,0
2018-09-19T03:16:25.340Z,0
2018-09-19T03:17:05.812Z,0
2018-09-19T03:17:46.344Z,0
2018-09-19T03:18:26.604Z,0
2018-09-19T03:19:06.946Z,0
2018-09-19T03:19:47.414Z,0
2018-09-19T03:20:27.843Z,0
2018-09-19T03:21:08.183Z,0
2018-09-19T03:21:48.929Z,0
2018-09-19T03:22:29.150Z,0
2018-09-19T03:23:09.635Z,0
2018-09-19T03:23:50.008Z,0
2018-09-19T03:24:30.712Z,0
2018-09-19T03:25:11.274Z,0
2018-09-19T03:25:51.636Z,0
2018-09-19T03:26:32.269Z,0
2018-09-19T03:27:12.930Z,0
2018-09-19T03:27:53.326Z,0
2018-09-19T03:28:33.609Z,0
2018-09-19T03:29:14.198Z,0
2018-09-19T03:29:54.813Z,0
2018-09-19T03:30:35.160Z,0
2018-09-19T03:31:15.599Z,0
2018-09-19T03:31:56.017Z,0
2018-09-19T03:32:36.388Z,0
2018-09-19T03:33:16.766Z,0
2018-09-19T03:33:57.319Z,0
2018-09-19T03:34:37.679Z,0
2018-09-19T03:35:18.345Z,0
2018-09-19T03:35:58.731Z,0
2018-09-19T03:36:39.253Z,0
2018-09-19T03:37:19.712Z,0
2018-09-19T03:38:00.171Z,0
2018-09-19T03:38:40.649Z,0
2018-09-19T03:39:21.043Z,0
2018-09-19T03:40:01.465Z,0
2018-09-19T03:40:41.949Z,0
2018-09-19T03:41:22.402Z,0
2018-09-19T03:42:03.150Z,0
2018-09-19T03:42:43.626Z,0
2018-09-19T03:43:24.217Z,0
2018-09-19T03:44:04.562Z,0
2018-09-19T03:44:45.256Z,0
2018-09-19T03:45:25.969Z,0
2018-09-19T03:46:06.411Z,0
2018-09-19T03:46:46.596Z,0
2018-09-19T03:47:27.057Z,0
2018-09-19T03:48:07.498Z,0
2018-09-19T03:48:47.895Z,0
2018-09-19T03:49:28.462Z,0
2018-09-19T03:50:08.734Z,0
2018-09-19T03:50:49.234Z,0
2018-09-19T03:51:29.573Z,0
2018-09-19T03:52:10.069Z,0
2018-09-19T03:52:50.372Z,0
2018-09-19T03:53:30.780Z,0
2018-09-19T03:54:11.248Z,0
2018-09-19T03:54:51.555Z,0
2018-09-19T03:55:32.030Z,0
2018-09-19T03:56:12.331Z,0
2018-09-19T03:56:52.814Z,0
2018-09-19T03:57:33.202Z,0
2018-09-19T04:00:50.050Z,0
2018-09-19T04:14:56.467Z,0
2018-09-19T04:15:36.434Z,0
2018-09-19T04:16:17.384Z,0
2018-09-19T04:16:57.895Z,0
2018-09-19T04:17:38.290Z,0
2018-09-19T04:18:19.029Z,0
2018-09-19T04:18:59.274Z,0
2018-09-19T04:19:39.771Z,0
2018-09-19T04:20:20.194Z,0
2018-09-19T04:21:00.761Z,0
2018-09-19T04:21:41.318Z,0
2018-09-19T04:22:21.859Z,0
2018-09-19T04:23:02.497Z,0
2018-09-19T04:23:42.988Z,0
2018-09-19T04:24:23.565Z,0
2018-09-19T04:25:04.152Z,0
2018-09-19T04:25:44.716Z,0
2018-09-19T04:26:25.164Z,0
2018-09-19T04:27:05.507Z,0
2018-09-19T04:27:46.038Z,0
2018-09-19T04:28:26.691Z,0
2018-09-19T05:22:28.489Z,5
2018-09-19T05:23:21.002Z,5
2018-09-19T05:24:13.726Z,5
2018-09-19T05:25:07.121Z,5
2018-09-19T05:26:00.512Z,5
2018-09-19T05:26:53.406Z,5
2018-09-19T05:27:52.630Z,5
2018-09-19T05:28:51.174Z,5
2018-09-19T05:32:08.147Z,10
2018-09-19T05:33:06.970Z,10
2018-09-19T05:45:42.748Z,15
2018-09-19T05:50:46.035Z,40
2018-09-19T05:51:26.492Z,40
2018-09-19T05:52:06.899Z,40
2018-09-19T05:52:47.512Z,45
2018-09-19T05:55:17.677Z,55
2018-09-19T05:56:08.398Z,65
2018-09-19T05:56:48.541Z,65
2018-09-19T05:57:29.789Z,70
2018-09-19T05:58:10.214Z,75
2018-09-19T05:58:51.531Z,85
2018-09-19T05:59:31.642Z,80
2018-09-19T06:00:12.708Z,80
2018-09-19T06:00:53.594Z,100
2018-09-19T06:01:41.621Z,100
2018-09-19T06:02:22.973Z,105
2018-09-19T06:03:03.229Z,105
2018-09-19T06:03:43.551Z,110
2018-09-19T06:04:24.126Z,115
2018-09-19T06:05:04.873Z,120
2018-09-19T06:05:46.133Z,120
2018-09-19T06:08:58.536Z,145
2018-09-19T06:09:52.157Z,155
2018-09-19T06:17:36.704Z,250
2018-09-19T06:18:12.796Z,245
2018-09-19T06:18:56.664Z,255
2018-09-19T06:19:37.606Z,255
2018-09-19T06:20:18.357Z,255
2018-09-19T06:20:59.310Z,260
2018-09-19T06:21:39.809Z,270
2018-09-19T06:22:21.366Z,275
2018-09-19T06:23:01.275Z,285
2018-09-19T06:23:41.842Z,300
2018-09-19T06:24:22.867Z,310
2018-09-19T06:25:24.213Z,315
2018-09-19T06:26:06.446Z,320
2018-09-19T06:44:56.542Z,150
2018-09-19T06:45:37.088Z,150
2018-09-19T06:46:17.640Z,155
2018-09-19T06:46:58.165Z,150
2018-09-19T06:47:39.483Z,155
2018-09-19T06:48:20.473Z,155
2018-09-19T06:49:00.832Z,160
2018-09-19T06:49:41.443Z,160
2018-09-19T06:50:21.943Z,160
2018-09-19T06:51:02.734Z,160
2018-09-19T06:51:43.564Z,160
2018-09-19T06:52:24.455Z,160
2018-09-19T06:53:05.164Z,160
2018-09-19T06:53:45.855Z,160
2018-09-19T06:54:26.097Z,160
2018-09-19T06:55:06.524Z,155
2018-09-19T06:55:46.897Z,155
2018-09-19T06:56:27.720Z,155
2018-09-19T06:57:08.096Z,155
2018-09-19T07:02:14.235Z,165
2018-09-19T07:05:00.479Z,170
2018-09-19T07:05:37.120Z,175
2018-09-19T07:06:17.904Z,170
2018-09-19T07:06:58.536Z,175
2018-09-19T07:10:57.612Z,175
2018-09-19T07:11:47.219Z,170
2018-09-19T07:12:27.228Z,170
2018-09-19T07:13:55.187Z,170
2018-09-19T07:14:35.658Z,170
2018-09-19T07:16:13.754Z,165
2018-09-19T07:16:54.111Z,165
2018-09-19T07:17:35.567Z,165
2018-09-19T07:18:16.090Z,165
2018-09-19T07:19:17.223Z,165
2018-09-19T07:19:57.806Z,165
2018-09-19T07:20:39.560Z,160
2018-09-19T07:21:19.916Z,155
2018-09-19T07:22:20.259Z,150
2018-09-19T07:23:01.927Z,145
2018-09-19T07:23:42.595Z,140
2018-09-19T07:24:23.057Z,135
2018-09-19T07:25:03.599Z,135
2018-09-19T07:25:46.931Z,135
2018-09-19T07:26:27.425Z,130
2018-09-19T07:27:08.276Z,130
2018-09-19T07:28:01.217Z,130
2018-09-19T07:28:41.729Z,125
2018-09-19T07:29:22.136Z,125
2018-09-19T07:30:02.610Z,125
2018-09-19T07:30:43.091Z,125
2018-09-19T07:31:23.674Z,120
2018-09-19T07:32:04.181Z,120
2018-09-19T07:32:44.558Z,120
2018-09-19T07:33:25.037Z,115
2018-09-19T07:34:05.595Z,120
2018-09-19T07:34:46.165Z,120
2018-09-19T07:35:26.890Z,115
2018-09-19T07:36:07.754Z,115
2018-09-19T07:36:48.269Z,110
2018-09-19T07:37:28.751Z,115
2018-09-19T07:38:09.628Z,115
2018-09-19T07:38:50.662Z,115
2018-09-19T07:39:30.795Z,105
2018-09-19T07:40:11.434Z,120
2018-09-19T07:40:51.776Z,90
2018-09-19T07:41:32.463Z,85
2018-09-19T07:42:12.947Z,80
2018-09-19T07:42:53.483Z,80
2018-09-19T07:43:34.149Z,105
2018-09-19T07:44:14.559Z,105
2018-09-19T07:44:55.311Z,105
2018-09-19T07:45:35.941Z,100
2018-09-19T07:46:16.907Z,85
2018-09-19T07:46:57.414Z,85
2018-09-19T07:47:38.689Z,85
2018-09-19T07:48:19.805Z,90
2018-09-19T07:49:02.412Z,95
2018-09-19T07:57:00.107Z,105
2018-09-19T07:57:41.870Z,105
2018-09-19T07:58:22.220Z,110
2018-09-19T07:59:02.643Z,105
2018-09-19T07:59:43.545Z,100
2018-09-19T08:05:05.469Z,100
2018-09-19T08:05:46.086Z,100
2018-09-19T08:06:26.779Z,100
2018-09-19T08:07:07.783Z,100
2018-09-19T08:07:48.551Z,100
2018-09-19T08:08:29.228Z,100
2018-09-19T08:09:09.902Z,100
2018-09-19T08:09:50.554Z,105
2018-09-19T08:10:31.521Z,105
2018-09-19T08:11:12.334Z,105
2018-09-19T08:11:53.945Z,105
2018-09-19T08:12:34.929Z,105
2018-09-19T08:13:14.688Z,105
2018-09-19T08:13:55.164Z,105
2018-09-19T08:14:35.556Z,110
2018-09-19T08:15:16.905Z,110
2018-09-19T08:15:56.609Z,110
2018-09-19T08:16:37.118Z,110
2018-09-19T08:17:17.649Z,110
2018-09-19T08:17:58.079Z,105
2018-09-19T08:18:40.416Z,100
2018-09-19T08:19:20.300Z,95
2018-09-19T08:20:00.977Z,85
2018-09-19T08:20:41.836Z,70
2018-09-19T08:21:22.903Z,70
2018-09-19T08:22:03.367Z,65
2018-09-19T08:22:44.547Z,65
2018-09-19T08:23:25.519Z,60
2018-09-19T08:24:07.474Z,60
2018-09-19T08:24:47.468Z,60
2018-09-19T08:25:28.185Z,60
2018-09-19T08:26:08.885Z,60
2018-09-19T08:26:49.675Z,60
2018-09-19T08:27:32.060Z,55
2018-09-19T08:28:12.635Z,55
2018-09-19T08:28:53.154Z,60
2018-09-19T08:29:33.563Z,60
2018-09-19T08:30:14.148Z,60
2018-09-19T08:30:55.641Z,60
2018-09-19T08:31:35.312Z,65
2018-09-19T08:32:15.874Z,70
2018-09-19T08:33:00.051Z,70
2018-09-19T08:33:41.298Z,70
2018-09-19T08:34:23.487Z,75
2018-09-19T08:35:03.561Z,80
2018-09-19T08:35:44.231Z,80
2018-09-19T08:36:24.733Z,85
2018-09-19T08:37:05.228Z,85
2018-09-19T08:37:45.784Z,85
2018-09-19T08:38:27.437Z,85
2018-09-19T08:39:07.584Z,85
2018-09-19T08:39:48.950Z,85
2018-09-19T08:40:29.271Z,85
2018-09-19T08:41:10.187Z,85
2018-09-19T08:41:52.170Z,85
2018-09-19T08:42:32.631Z,85
2018-09-19T08:43:13.965Z,85
2018-09-19T08:43:54.668Z,85
2018-09-19T08:44:35.292Z,85
2018-09-19T08:45:15.990Z,85
2018-09-19T08:45:57.697Z,85
2018-09-19T08:46:38.197Z,85
2018-09-19T08:47:18.905Z,85
2018-09-19T08:48:00.367Z,85
2018-09-19T08:48:42.772Z,85
2018-09-19T08:49:23.609Z,85
2018-09-19T08:50:04.350Z,80
2018-09-19T08:50:45.482Z,80
2018-09-19T08:51:26.219Z,80
2018-09-19T08:52:07.068Z,80
2018-09-19T08:52:48.838Z,80
2018-09-19T08:53:29.484Z,80
2018-09-19T08:54:14.366Z,80
2018-09-19T08:54:54.841Z,80
2018-09-19T08:55:36.570Z,80
2018-09-19T08:56:17.666Z,80
2018-09-19T08:56:58.639Z,80
2018-09-19T08:57:39.082Z,80
2018-09-19T08:58:20.277Z,80
2018-09-19T08:59:00.313Z,80
2018-09-19T08:59:41.713Z,75
2018-09-19T09:00:22.264Z,75
2018-09-19T09:01:02.800Z,75
2018-09-19T09:01:45.530Z,75
2018-09-19T09:02:25.854Z,75
2018-09-19T09:03:06.572Z,75
2018-09-19T09:03:48.148Z,75
2018-09-19T09:04:27.963Z,75
2018-09-19T09:05:08.600Z,75
2018-09-19T09:05:49.735Z,75
2018-09-19T09:06:30.286Z,75
2018-09-19T09:07:10.870Z,75
2018-09-19T09:07:52.558Z,75
2018-09-19T09:08:33.293Z,75
2018-09-19T09:09:14.532Z,75
2018-09-19T09:09:54.825Z,75
2018-09-19T09:10:35.712Z,80
2018-09-19T09:11:16.276Z,75
2018-09-19T09:11:56.726Z,75
2018-09-19T09:12:37.365Z,75
2018-09-19T09:13:20.436Z,75
2018-09-19T09:14:01.520Z,75
2018-09-19T09:14:42.728Z,75
2018-09-19T09:15:22.919Z,75
2018-09-19T09:16:03.732Z,75
2018-09-19T09:16:44.642Z,70
2018-09-19T09:17:41.019Z,75
2018-09-19T09:18:21.161Z,70
2018-09-19T09:19:01.639Z,70
2018-09-19T09:19:42.130Z,70
2018-09-19T09:20:22.871Z,70
2018-09-19T09:21:03.264Z,70
2018-09-19T09:21:43.733Z,70
2018-09-19T09:22:24.224Z,75
2018-09-19T09:23:05.103Z,75
2018-09-19T09:23:47.020Z,70
2018-09-19T09:24:27.595Z,75
2018-09-19T09:25:08.816Z,70
2018-09-19T09:25:49.415Z,70
2018-09-19T09:26:30.057Z,70
2018-09-19T09:27:10.688Z,70
2018-09-19T09:27:51.183Z,70
2018-09-19T09:28:31.645Z,70
2018-09-19T09:29:12.431Z,70
2018-09-19T09:29:53.128Z,70
2018-09-19T09:30:33.890Z,70
2018-09-19T09:31:14.251Z,70
2018-09-19T09:31:55.061Z,70
2018-09-19T09:34:21.137Z,70
2018-09-19T09:35:01.839Z,70
2018-09-19T09:35:42.697Z,70
2018-09-19T09:36:24.999Z,70
2018-09-19T09:37:05.361Z,70
2018-09-19T09:37:50.711Z,70
2018-09-19T09:38:31.923Z,70
2018-09-19T09:39:17.232Z,70
2018-09-19T09:40:13.245Z,70
2018-09-19T09:51:53.470Z,75
2018-09-19T09:52:36.827Z,75
2018-09-19T09:53:19.181Z,75
2018-09-19T09:54:00.808Z,75
2018-09-19T09:54:42.974Z,75
2018-09-19T09:55:24.543Z,75
2018-09-19T09:56:05.986Z,70
2018-09-19T09:56:46.670Z,75
2018-09-19T09:57:29.320Z,75
2018-09-19T09:58:08.614Z,75
2018-09-19T09:58:49.893Z,70
2018-09-19T09:59:32.746Z,75
2018-09-19T10:00:15.108Z,55
2018-09-19T10:01:02.989Z,50
2018-09-19T10:01:45.228Z,55
2018-09-19T10:02:26.052Z,80
2018-09-19T10:03:11.437Z,80
2018-09-19T10:03:51.030Z,80
2018-09-19T10:04:34.507Z,80
2018-09-19T10:05:18.158Z,85
2018-09-19T10:06:15.918Z,85
2018-09-19T10:07:04.989Z,85
2018-09-19T10:07:49.541Z,80
2018-09-19T10:08:32.588Z,80
2018-09-19T10:09:15.668Z,75
2018-09-19T10:09:58.577Z,60
2018-09-19T10:10:40.964Z,60
2018-09-19T10:11:21.197Z,50
2018-09-19T10:12:02.504Z,70
2018-09-19T10:12:44.333Z,75
2018-09-19T10:13:27.376Z,75
2018-09-19T10:14:12.561Z,75
2018-09-19T10:14:58.778Z,75
2018-09-19T10:15:39.543Z,80
2018-09-19T10:16:24.412Z,80
2018-09-19T10:17:07.675Z,80
2018-09-19T10:17:52.414Z,80
2018-09-19T10:18:36.704Z,75
2018-09-19T10:19:21.556Z,75
2018-09-19T10:20:05.518Z,75
2018-09-19T10:20:48.486Z,75
2018-09-19T10:21:30.015Z,75
2018-09-19T10:22:13.372Z,75
2018-09-19T10:22:53.297Z,75
2018-09-19T10:23:34.909Z,75
2018-09-19T10:24:15.541Z,70
2018-09-19T10:24:56.645Z,70
2018-09-19T10:25:37.716Z,70
2018-09-19T10:26:18.588Z,70
2018-09-19T10:26:59.228Z,70
2018-09-19T10:28:00.402Z,70
2018-09-19T10:29:15.472Z,70
2018-09-19T11:28:14.702Z,50
2018-09-19T11:28:55.365Z,50
2018-09-19T11:29:35.944Z,50
2018-09-19T11:30:17.631Z,50
2018-09-19T11:30:58.660Z,50
2018-09-19T11:31:39.839Z,50
2018-09-19T11:32:20.725Z,50
2018-09-19T11:33:02.786Z,70
2018-09-19T11:33:43.422Z,50
2018-09-19T11:34:25.830Z,45
2018-09-19T11:35:07.464Z,45
2018-09-19T11:35:51.069Z,50
2018-09-19T11:36:39.222Z,70
2018-09-19T11:37:23.068Z,50
2018-09-19T11:38:04.200Z,50
2018-09-19T11:38:44.890Z,50
2018-09-19T11:39:25.796Z,50
2018-09-19T11:40:06.488Z,50
2018-09-19T11:40:48.554Z,50
2018-09-19T11:41:29.279Z,50
2018-09-19T11:42:10.496Z,55
2018-09-19T11:42:51.117Z,50
2018-09-19T11:43:32.003Z,50
2018-09-19T11:44:12.985Z,50
2018-09-19T11:47:00.098Z,45
2018-09-19T11:47:53.564Z,45
2018-09-19T11:48:34.165Z,50
2018-09-19T11:49:14.606Z,45
2018-09-19T11:49:55.175Z,45
2018-09-19T11:50:36.249Z,45
2018-09-19T11:51:17.569Z,45
2018-09-19T11:51:59.359Z,45
2018-09-19T11:52:40.922Z,45
2018-09-19T11:53:22.733Z,45
2018-09-19T11:54:03.367Z,45
2018-09-19T11:54:44.175Z,50
2018-09-19T11:55:25.171Z,50
2018-09-19T11:56:06.394Z,50
2018-09-19T11:56:48.961Z,50
2018-09-19T11:57:29.437Z,55
2018-09-19T11:58:10.344Z,65
2018-09-19T11:58:51.963Z,50
2018-09-19T11:59:33.364Z,60
2018-09-19T12:00:13.816Z,70
2018-09-19T12:00:53.809Z,55
2018-09-19T12:01:34.945Z,50
2018-09-19T12:02:15.873Z,50
2018-09-19T12:02:57.376Z,50
2018-09-19T12:03:38.612Z,70
2018-09-19T12:04:20.299Z,70
2018-09-19T12:05:02.088Z,65
2018-09-19T12:05:43.881Z,50
2018-09-19T12:06:24.477Z,45
2018-09-19T12:07:05.181Z,45
2018-09-19T12:07:45.699Z,45
2018-09-19T12:08:28.702Z,45
2018-09-19T12:09:09.387Z,45
2018-09-19T12:09:51.880Z,50
2018-09-19T12:10:32.165Z,50
2018-09-19T12:11:13.698Z,50
2018-09-19T12:11:55.209Z,65
2018-09-19T12:12:37.877Z,65
2018-09-19T12:13:19.612Z,65
2018-09-19T12:14:00.673Z,65
2018-09-19T12:14:42.407Z,50
2018-09-19T12:15:22.898Z,55
2018-09-19T12:16:03.472Z,55
2018-09-19T12:16:44.640Z,45
2018-09-19T12:17:26.660Z,65
2018-09-19T12:18:06.634Z,65
2018-09-19T12:28:41.390Z,45
2018-09-19T12:29:22.129Z,50
2018-09-19T12:30:03.713Z,50
2018-09-19T12:30:45.293Z,50
2018-09-19T12:31:25.212Z,50
2018-09-19T12:32:07.136Z,50
2018-09-19T12:32:48.774Z,45
2018-09-19T12:33:29.283Z,50
2018-09-19T12:34:10.342Z,45
2018-09-19T12:34:54.641Z,50
2018-09-19T12:35:33.395Z,50
2018-09-19T12:50:58.397Z,65
2018-09-19T12:51:45.195Z,65
2018-09-19T12:52:29.735Z,45
2018-09-19T12:53:10.389Z,65
2018-09-19T12:54:34.332Z,65
2018-09-19T12:55:16.004Z,65
2018-09-19T12:55:56.704Z,60
2018-09-19T12:56:37.144Z,60
2018-09-19T12:57:18.372Z,60
2018-09-19T12:57:59.133Z,45
2018-09-19T12:58:40.171Z,45
2018-09-19T12:59:21.555Z,45
2018-09-19T13:00:01.594Z,60
2018-09-19T13:00:43.980Z,65
2018-09-19T13:01:25.445Z,45
2018-09-19T13:02:06.137Z,50
2018-09-19T13:02:47.977Z,45
2018-09-19T13:03:29.546Z,45
2018-09-19T13:04:10.299Z,45
2018-09-19T13:04:50.724Z,45
2018-09-19T13:05:33.212Z,45
2018-09-19T13:06:14.044Z,45
2018-09-19T13:06:54.752Z,45
2018-09-19T13:07:39.470Z,45
2018-09-19T13:08:20.085Z,45
2018-09-19T13:09:03.571Z,50
2018-09-19T13:09:46.779Z,50
2018-09-19T13:10:30.977Z,50
2018-09-19T13:14:06.270Z,65
2018-09-19T13:14:47.498Z,65
2018-09-19T13:15:28.246Z,60
2018-09-19T13:16:08.964Z,50
2018-09-19T13:16:49.621Z,50
2018-09-19T13:17:30.526Z,60
2018-09-19T13:18:11.778Z,60
2018-09-19T13:18:52.634Z,60
2018-09-19T13:19:34.016Z,60
2018-09-19T13:20:28.786Z,60
2018-09-19T13:21:09.583Z,60
2018-09-19T13:21:50.097Z,60
2018-09-19T13:22:30.803Z,60
2018-09-19T13:23:12.024Z,60
2018-09-19T13:23:52.572Z,60
2018-09-19T13:24:33.150Z,60
2018-09-19T13:25:13.537Z,60
2018-09-19T13:25:54.378Z,55
2018-09-19T13:26:35.410Z,55
2018-09-19T13:27:16.718Z,55
2018-09-19T13:27:57.171Z,55
2018-09-19T13:28:39.360Z,50
2018-09-19T13:29:20.228Z,50
2018-09-19T13:30:00.331Z,50
2018-09-19T13:30:41.121Z,50
2018-09-19T13:31:21.747Z,50
2018-09-19T13:32:03.263Z,50
2018-09-19T13:32:43.804Z,50
2018-09-19T13:33:24.214Z,50
2018-09-19T13:34:05.166Z,50
2018-09-19T13:34:45.765Z,50
2018-09-19T13:35:26.638Z,50
2018-09-19T13:36:07.464Z,50
2018-09-19T13:36:47.965Z,50
2018-09-19T13:37:28.954Z,50
2018-09-19T13:38:09.694Z,50
2018-09-19T13:38:50.724Z,50
2018-09-19T13:39:32.537Z,55
2018-09-19T13:40:12.696Z,50
2018-09-19T13:40:54.450Z,50
2018-09-19T13:41:36.053Z,50
2018-09-19T13:42:16.943Z,50
2018-09-19T13:42:57.585Z,50
2018-09-19T13:43:38.017Z,50
2018-09-19T13:44:19.102Z,50
2018-09-19T13:44:59.599Z,50
2018-09-19T13:45:40.291Z,50
2018-09-19T13:46:20.857Z,40
2018-09-19T13:47:01.536Z,45
2018-09-19T13:47:42.232Z,50
2018-09-19T13:48:23.657Z,50
2018-09-19T13:49:03.682Z,50
2018-09-19T13:49:44.337Z,50
2018-09-19T13:50:24.820Z,50
2018-09-19T13:51:05.339Z,50
2018-09-19T13:51:45.967Z,50
2018-09-19T13:52:26.430Z,50
2018-09-19T13:53:07.286Z,50
2018-09-19T13:53:47.723Z,50
2018-09-19T13:54:28.154Z,50
2018-09-19T13:55:08.524Z,50
2018-09-19T13:55:49.343Z,50
2018-09-19T13:56:30.502Z,45
2018-09-19T13:57:11.096Z,50
2018-09-19T13:57:52.619Z,50
2018-09-19T13:58:33.103Z,45
2018-09-19T13:59:14.603Z,45